sensor_id;sensor_type;location;lat;lon;timestamp;P1;durP1;ratioP1;P2;durP2;ratioP2
14408;SDS011;7289;50.706;4.992;2023-03-12T00:01:14;0.20;;;0.20;;
14408;SDS011;7289;50.706;4.992;2023-03-12T00:03:44;0.20;;;0.20;;
14408;SDS011;7289;50.706;4.992;2023-03-12T00:06:13;0.20;;;0.20;;
14408;SDS011;7289;50.706;4.992;2023-03-12T00:08:41;0.20;;;0.20;;
14408;SDS011;7289;50.706;4.992;2023-03-12T00:11:10;0.20;;;0.20;;
14408;SDS011;7289;50.706;4.992;2023-03-12T00:13:41;0.20;;;0.20;;
14408;SDS011;7289;50.706;4.992;2023-03-12T00:16:11;0.20;;;0.20;;
14408;SDS011;7289;50.706;4.992;2023-03-12T00:18:40;0.20;;;0.20;;
14408;SDS011;7289;50.706;4.992;2023-03-12T00:21:09;0.20;;;0.20;;
14408;SDS011;7289;50.706;4.992;2023-03-12T00:23:38;0.20;;;0.20;;
14408;SDS011;7289;50.706;4.992;2023-03-12T00:26:07;0.20;;;0.20;;
14408;SDS011;7289;50.706;4.992;2023-03-12T00:28:37;0.20;;;0.20;;
14408;SDS011;7289;50.706;4.992;2023-03-12T00:31:13;0.20;;;0.20;;
14408;SDS011;7289;50.706;4.992;2023-03-12T00:33:42;0.20;;;0.20;;
14408;SDS011;7289;50.706;4.992;2023-03-12T00:36:11;0.20;;;0.20;;
14408;SDS011;7289;50.706;4.992;2023-03-12T00:38:39;0.20;;;0.20;;
14408;SDS011;7289;50.706;4.992;2023-03-12T00:41:08;0.30;;;0.30;;
14408;SDS011;7289;50.706;4.992;2023-03-12T00:43:36;0.23;;;0.23;;
14408;SDS011;7289;50.706;4.992;2023-03-12T00:46:04;0.30;;;0.30;;
14408;SDS011;7289;50.706;4.992;2023-03-12T00:48:34;0.30;;;0.30;;
14408;SDS011;7289;50.706;4.992;2023-03-12T00:51:03;0.20;;;0.20;;
14408;SDS011;7289;50.706;4.992;2023-03-12T00:53:31;0.20;;;0.20;;
14408;SDS011;7289;50.706;4.992;2023-03-12T00:56:00;0.20;;;0.20;;
14408;SDS011;7289;50.706;4.992;2023-03-12T00:58:29;0.30;;;0.30;;
14408;SDS011;7289;50.706;4.992;2023-03-12T01:00:58;0.20;;;0.20;;
14408;SDS011;7289;50.706;4.992;2023-03-12T01:03:26;0.20;;;0.20;;
14408;SDS011;7289;50.706;4.992;2023-03-12T01:05:56;0.20;;;0.20;;
14408;SDS011;7289;50.706;4.992;2023-03-12T01:08:24;0.20;;;0.20;;
14408;SDS011;7289;50.706;4.992;2023-03-12T01:10:53;0.20;;;0.20;;
14408;SDS011;7289;50.706;4.992;2023-03-12T01:13:22;0.20;;;0.20;;
14408;SDS011;7289;50.706;4.992;2023-03-12T01:15:50;0.20;;;0.20;;
14408;SDS011;7289;50.706;4.992;2023-03-12T01:18:18;0.23;;;0.23;;
14408;SDS011;7289;50.706;4.992;2023-03-12T01:20:47;0.20;;;0.20;;
14408;SDS011;7289;50.706;4.992;2023-03-12T01:23:17;0.20;;;0.20;;
14408;SDS011;7289;50.706;4.992;2023-03-12T01:25:45;0.30;;;0.30;;
14408;SDS011;7289;50.706;4.992;2023-03-12T01:28:14;0.30;;;0.30;;
14408;SDS011;7289;50.706;4.992;2023-03-12T01:30:43;0.23;;;0.23;;
14408;SDS011;7289;50.706;4.992;2023-03-12T01:33:11;0.30;;;0.30;;
14408;SDS011;7289;50.706;4.992;2023-03-12T01:35:40;0.20;;;0.20;;
14408;SDS011;7289;50.706;4.992;2023-03-12T01:38:10;0.20;;;0.20;;
14408;SDS011;7289;50.706;4.992;2023-03-12T01:40:42;0.20;;;0.20;;
14408;SDS011;7289;50.706;4.992;2023-03-12T01:43:21;0.20;;;0.20;;
14408;SDS011;7289;50.706;4.992;2023-03-12T01:48:57;0.20;;;0.20;;
14408;SDS011;7289;50.706;4.992;2023-03-12T01:51:31;0.20;;;0.20;;
14408;SDS011;7289;50.706;4.992;2023-03-12T01:54:04;0.30;;;0.30;;
14408;SDS011;7289;50.706;4.992;2023-03-12T01:56:37;0.30;;;0.30;;
14408;SDS011;7289;50.706;4.992;2023-03-12T01:59:08;0.20;;;0.20;;
14408;SDS011;7289;50.706;4.992;2023-03-12T02:01:40;0.30;;;0.30;;
14408;SDS011;7289;50.706;4.992;2023-03-12T02:04:10;0.23;;;0.23;;
14408;SDS011;7289;50.706;4.992;2023-03-12T02:06:40;0.30;;;0.30;;
14408;SDS011;7289;50.706;4.992;2023-03-12T02:09:15;0.20;;;0.20;;
14408;SDS011;7289;50.706;4.992;2023-03-12T02:11:48;0.20;;;0.20;;
14408;SDS011;7289;50.706;4.992;2023-03-12T02:14:18;0.20;;;0.20;;
14408;SDS011;7289;50.706;4.992;2023-03-12T02:16:47;0.20;;;0.20;;
14408;SDS011;7289;50.706;4.992;2023-03-12T02:19:18;0.20;;;0.20;;
14408;SDS011;7289;50.706;4.992;2023-03-12T02:21:52;0.20;;;0.20;;
14408;SDS011;7289;50.706;4.992;2023-03-12T02:24:23;0.30;;;0.30;;
14408;SDS011;7289;50.706;4.992;2023-03-12T02:26:58;0.20;;;0.20;;
14408;SDS011;7289;50.706;4.992;2023-03-12T02:29:27;0.20;;;0.20;;
14408;SDS011;7289;50.706;4.992;2023-03-12T02:31:59;0.20;;;0.20;;
14408;SDS011;7289;50.706;4.992;2023-03-12T02:34:32;0.20;;;0.20;;
14408;SDS011;7289;50.706;4.992;2023-03-12T02:37:02;0.27;;;0.27;;
14408;SDS011;7289;50.706;4.992;2023-03-12T02:39:30;0.27;;;0.27;;
14408;SDS011;7289;50.706;4.992;2023-03-12T02:42:00;0.20;;;0.20;;
14408;SDS011;7289;50.706;4.992;2023-03-12T02:44:29;0.30;;;0.30;;
14408;SDS011;7289;50.706;4.992;2023-03-12T02:47:00;0.20;;;0.20;;
14408;SDS011;7289;50.706;4.992;2023-03-12T02:49:29;0.20;;;0.20;;
14408;SDS011;7289;50.706;4.992;2023-03-12T02:51:59;0.20;;;0.20;;
14408;SDS011;7289;50.706;4.992;2023-03-12T02:54:28;0.20;;;0.20;;
14408;SDS011;7289;50.706;4.992;2023-03-12T02:56:56;0.20;;;0.20;;
14408;SDS011;7289;50.706;4.992;2023-03-12T02:59:28;0.20;;;0.20;;
14408;SDS011;7289;50.706;4.992;2023-03-12T03:01:58;0.20;;;0.20;;
14408;SDS011;7289;50.706;4.992;2023-03-12T03:04:28;0.20;;;0.20;;
14408;SDS011;7289;50.706;4.992;2023-03-12T03:07:01;0.30;;;0.30;;
14408;SDS011;7289;50.706;4.992;2023-03-12T03:09:29;0.30;;;0.30;;
14408;SDS011;7289;50.706;4.992;2023-03-12T03:11:58;0.20;;;0.20;;
14408;SDS011;7289;50.706;4.992;2023-03-12T03:14:31;0.20;;;0.20;;
14408;SDS011;7289;50.706;4.992;2023-03-12T03:16:59;0.20;;;0.20;;
14408;SDS011;7289;50.706;4.992;2023-03-12T03:19:28;0.20;;;0.20;;
14408;SDS011;7289;50.706;4.992;2023-03-12T03:21:56;0.30;;;0.30;;
14408;SDS011;7289;50.706;4.992;2023-03-12T03:24:25;0.20;;;0.20;;
14408;SDS011;7289;50.706;4.992;2023-03-12T03:26:53;0.20;;;0.20;;
14408;SDS011;7289;50.706;4.992;2023-03-12T03:29:22;0.20;;;0.20;;
14408;SDS011;7289;50.706;4.992;2023-03-12T03:31:51;0.20;;;0.20;;
14408;SDS011;7289;50.706;4.992;2023-03-12T03:34:20;0.20;;;0.20;;
14408;SDS011;7289;50.706;4.992;2023-03-12T03:36:48;0.20;;;0.20;;
14408;SDS011;7289;50.706;4.992;2023-03-12T03:39:17;0.30;;;0.30;;
14408;SDS011;7289;50.706;4.992;2023-03-12T03:41:46;0.30;;;0.30;;
14408;SDS011;7289;50.706;4.992;2023-03-12T03:44:17;0.23;;;0.23;;
14408;SDS011;7289;50.706;4.992;2023-03-12T03:46:46;0.20;;;0.20;;
14408;SDS011;7289;50.706;4.992;2023-03-12T03:49:16;0.20;;;0.20;;
14408;SDS011;7289;50.706;4.992;2023-03-12T03:51:44;0.20;;;0.20;;
14408;SDS011;7289;50.706;4.992;2023-03-12T03:54:17;0.20;;;0.20;;
14408;SDS011;7289;50.706;4.992;2023-03-12T03:56:46;0.27;;;0.27;;
14408;SDS011;7289;50.706;4.992;2023-03-12T03:59:15;0.20;;;0.20;;
14408;SDS011;7289;50.706;4.992;2023-03-12T04:01:43;0.30;;;0.30;;
14408;SDS011;7289;50.706;4.992;2023-03-12T04:04:12;0.20;;;0.20;;
14408;SDS011;7289;50.706;4.992;2023-03-12T04:06:42;0.20;;;0.20;;
14408;SDS011;7289;50.706;4.992;2023-03-12T04:09:10;0.20;;;0.20;;
14408;SDS011;7289;50.706;4.992;2023-03-12T04:11:39;0.20;;;0.20;;
14408;SDS011;7289;50.706;4.992;2023-03-12T04:14:09;0.20;;;0.20;;
14408;SDS011;7289;50.706;4.992;2023-03-12T04:16:41;0.20;;;0.20;;
14408;SDS011;7289;50.706;4.992;2023-03-12T04:19:10;0.30;;;0.30;;
14408;SDS011;7289;50.706;4.992;2023-03-12T04:21:39;0.23;;;0.23;;
14408;SDS011;7289;50.706;4.992;2023-03-12T04:24:11;0.23;;;0.23;;
14408;SDS011;7289;50.706;4.992;2023-03-12T04:26:42;0.20;;;0.20;;
14408;SDS011;7289;50.706;4.992;2023-03-12T04:29:12;0.30;;;0.30;;
14408;SDS011;7289;50.706;4.992;2023-03-12T04:31:41;0.20;;;0.20;;
14408;SDS011;7289;50.706;4.992;2023-03-12T04:34:10;0.20;;;0.20;;
14408;SDS011;7289;50.706;4.992;2023-03-12T04:36:42;0.20;;;0.20;;
14408;SDS011;7289;50.706;4.992;2023-03-12T04:39:13;0.20;;;0.20;;
14408;SDS011;7289;50.706;4.992;2023-03-12T04:41:46;0.20;;;0.20;;
14408;SDS011;7289;50.706;4.992;2023-03-12T04:44:14;0.20;;;0.20;;
14408;SDS011;7289;50.706;4.992;2023-03-12T04:46:43;0.20;;;0.20;;
14408;SDS011;7289;50.706;4.992;2023-03-12T04:49:15;0.20;;;0.20;;
14408;SDS011;7289;50.706;4.992;2023-03-12T04:51:44;0.20;;;0.20;;
14408;SDS011;7289;50.706;4.992;2023-03-12T04:54:14;0.30;;;0.30;;
14408;SDS011;7289;50.706;4.992;2023-03-12T04:56:43;0.20;;;0.20;;
14408;SDS011;7289;50.706;4.992;2023-03-12T04:59:11;0.20;;;0.20;;
14408;SDS011;7289;50.706;4.992;2023-03-12T05:01:41;0.20;;;0.20;;
14408;SDS011;7289;50.706;4.992;2023-03-12T05:04:16;0.20;;;0.20;;
14408;SDS011;7289;50.706;4.992;2023-03-12T05:06:45;0.30;;;0.30;;
14408;SDS011;7289;50.706;4.992;2023-03-12T05:09:15;0.20;;;0.20;;
14408;SDS011;7289;50.706;4.992;2023-03-12T05:11:43;0.30;;;0.30;;
14408;SDS011;7289;50.706;4.992;2023-03-12T05:14:15;0.20;;;0.20;;
14408;SDS011;7289;50.706;4.992;2023-03-12T05:16:45;0.20;;;0.20;;
14408;SDS011;7289;50.706;4.992;2023-03-12T05:19:13;0.20;;;0.20;;
14408;SDS011;7289;50.706;4.992;2023-03-12T05:21:41;0.20;;;0.20;;
14408;SDS011;7289;50.706;4.992;2023-03-12T05:24:10;0.20;;;0.20;;
14408;SDS011;7289;50.706;4.992;2023-03-12T05:26:41;0.20;;;0.20;;
14408;SDS011;7289;50.706;4.992;2023-03-12T05:29:23;0.20;;;0.20;;
14408;SDS011;7289;50.706;4.992;2023-03-12T05:31:52;0.20;;;0.20;;
14408;SDS011;7289;50.706;4.992;2023-03-12T05:34:21;0.20;;;0.20;;
14408;SDS011;7289;50.706;4.992;2023-03-12T05:36:50;0.20;;;0.20;;
14408;SDS011;7289;50.706;4.992;2023-03-12T05:39:22;0.20;;;0.20;;
14408;SDS011;7289;50.706;4.992;2023-03-12T05:41:52;0.20;;;0.20;;
14408;SDS011;7289;50.706;4.992;2023-03-12T05:44:23;0.20;;;0.20;;
14408;SDS011;7289;50.706;4.992;2023-03-12T05:46:54;0.20;;;0.20;;
14408;SDS011;7289;50.706;4.992;2023-03-12T05:49:25;0.20;;;0.20;;
14408;SDS011;7289;50.706;4.992;2023-03-12T05:51:55;0.20;;;0.20;;
14408;SDS011;7289;50.706;4.992;2023-03-12T05:54:24;0.20;;;0.20;;
14408;SDS011;7289;50.706;4.992;2023-03-12T05:56:54;0.20;;;0.20;;
14408;SDS011;7289;50.706;4.992;2023-03-12T05:59:24;0.20;;;0.20;;
14408;SDS011;7289;50.706;4.992;2023-03-12T06:01:54;0.20;;;0.20;;
14408;SDS011;7289;50.706;4.992;2023-03-12T06:04:22;0.20;;;0.20;;
14408;SDS011;7289;50.706;4.992;2023-03-12T06:06:52;0.20;;;0.20;;
14408;SDS011;7289;50.706;4.992;2023-03-12T06:09:21;0.20;;;0.20;;
14408;SDS011;7289;50.706;4.992;2023-03-12T06:11:49;0.20;;;0.20;;
14408;SDS011;7289;50.706;4.992;2023-03-12T06:14:19;0.20;;;0.20;;
14408;SDS011;7289;50.706;4.992;2023-03-12T06:16:48;0.27;;;0.27;;
14408;SDS011;7289;50.706;4.992;2023-03-12T06:19:17;0.20;;;0.20;;
14408;SDS011;7289;50.706;4.992;2023-03-12T06:21:48;0.20;;;0.20;;
14408;SDS011;7289;50.706;4.992;2023-03-12T06:24:17;0.20;;;0.20;;
14408;SDS011;7289;50.706;4.992;2023-03-12T06:26:53;0.20;;;0.20;;
14408;SDS011;7289;50.706;4.992;2023-03-12T06:29:22;0.20;;;0.20;;
14408;SDS011;7289;50.706;4.992;2023-03-12T06:31:51;0.20;;;0.20;;
14408;SDS011;7289;50.706;4.992;2023-03-12T06:34:19;0.20;;;0.20;;
14408;SDS011;7289;50.706;4.992;2023-03-12T06:36:47;0.20;;;0.20;;
14408;SDS011;7289;50.706;4.992;2023-03-12T06:39:16;0.20;;;0.20;;
14408;SDS011;7289;50.706;4.992;2023-03-12T06:41:44;0.20;;;0.20;;
14408;SDS011;7289;50.706;4.992;2023-03-12T06:44:13;0.20;;;0.20;;
14408;SDS011;7289;50.706;4.992;2023-03-12T06:46:42;0.20;;;0.20;;
14408;SDS011;7289;50.706;4.992;2023-03-12T06:49:11;0.20;;;0.20;;
14408;SDS011;7289;50.706;4.992;2023-03-12T06:51:39;0.20;;;0.20;;
14408;SDS011;7289;50.706;4.992;2023-03-12T06:54:08;0.20;;;0.20;;
14408;SDS011;7289;50.706;4.992;2023-03-12T06:56:36;0.20;;;0.20;;
14408;SDS011;7289;50.706;4.992;2023-03-12T06:59:04;0.20;;;0.20;;
14408;SDS011;7289;50.706;4.992;2023-03-12T07:01:33;0.20;;;0.20;;
14408;SDS011;7289;50.706;4.992;2023-03-12T07:04:03;0.20;;;0.20;;
14408;SDS011;7289;50.706;4.992;2023-03-12T07:06:31;0.20;;;0.20;;
14408;SDS011;7289;50.706;4.992;2023-03-12T07:09:00;0.20;;;0.20;;
14408;SDS011;7289;50.706;4.992;2023-03-12T07:11:28;0.20;;;0.20;;
14408;SDS011;7289;50.706;4.992;2023-03-12T07:13:56;0.20;;;0.20;;
14408;SDS011;7289;50.706;4.992;2023-03-12T07:16:25;0.20;;;0.20;;
14408;SDS011;7289;50.706;4.992;2023-03-12T07:18:53;0.20;;;0.20;;
14408;SDS011;7289;50.706;4.992;2023-03-12T07:21:23;0.20;;;0.20;;
14408;SDS011;7289;50.706;4.992;2023-03-12T07:23:51;0.20;;;0.20;;
14408;SDS011;7289;50.706;4.992;2023-03-12T07:26:20;0.20;;;0.20;;
14408;SDS011;7289;50.706;4.992;2023-03-12T07:28:49;0.20;;;0.20;;
14408;SDS011;7289;50.706;4.992;2023-03-12T07:31:17;0.20;;;0.20;;
14408;SDS011;7289;50.706;4.992;2023-03-12T07:33:45;0.20;;;0.20;;
14408;SDS011;7289;50.706;4.992;2023-03-12T07:36:14;0.20;;;0.20;;
14408;SDS011;7289;50.706;4.992;2023-03-12T07:38:44;0.20;;;0.20;;
14408;SDS011;7289;50.706;4.992;2023-03-12T07:41:13;0.20;;;0.20;;
14408;SDS011;7289;50.706;4.992;2023-03-12T07:43:41;0.10;;;0.10;;
14408;SDS011;7289;50.706;4.992;2023-03-12T07:46:10;0.20;;;0.20;;
14408;SDS011;7289;50.706;4.992;2023-03-12T07:48:38;0.20;;;0.20;;
14408;SDS011;7289;50.706;4.992;2023-03-12T07:51:09;0.10;;;0.10;;
14408;SDS011;7289;50.706;4.992;2023-03-12T07:53:38;0.20;;;0.20;;
14408;SDS011;7289;50.706;4.992;2023-03-12T07:56:08;0.20;;;0.20;;
14408;SDS011;7289;50.706;4.992;2023-03-12T07:58:36;0.20;;;0.20;;
14408;SDS011;7289;50.706;4.992;2023-03-12T08:01:05;0.20;;;0.20;;
14408;SDS011;7289;50.706;4.992;2023-03-12T08:03:33;0.20;;;0.20;;
14408;SDS011;7289;50.706;4.992;2023-03-12T08:06:02;0.10;;;0.10;;
14408;SDS011;7289;50.706;4.992;2023-03-12T08:08:32;0.20;;;0.20;;
14408;SDS011;7289;50.706;4.992;2023-03-12T08:11:02;0.20;;;0.20;;
14408;SDS011;7289;50.706;4.992;2023-03-12T08:13:32;0.20;;;0.20;;
14408;SDS011;7289;50.706;4.992;2023-03-12T08:16:01;0.20;;;0.20;;
14408;SDS011;7289;50.706;4.992;2023-03-12T08:18:30;0.20;;;0.20;;
14408;SDS011;7289;50.706;4.992;2023-03-12T08:20:58;0.20;;;0.20;;
14408;SDS011;7289;50.706;4.992;2023-03-12T08:23:27;0.10;;;0.10;;
14408;SDS011;7289;50.706;4.992;2023-03-12T08:25:57;0.20;;;0.20;;
14408;SDS011;7289;50.706;4.992;2023-03-12T08:28:25;0.13;;;0.13;;
14408;SDS011;7289;50.706;4.992;2023-03-12T08:30:57;0.20;;;0.20;;
14408;SDS011;7289;50.706;4.992;2023-03-12T08:33:26;0.20;;;0.20;;
14408;SDS011;7289;50.706;4.992;2023-03-12T08:35:55;0.10;;;0.10;;
14408;SDS011;7289;50.706;4.992;2023-03-12T08:38:23;0.20;;;0.20;;
14408;SDS011;7289;50.706;4.992;2023-03-12T08:40:55;0.10;;;0.10;;
14408;SDS011;7289;50.706;4.992;2023-03-12T08:43:24;0.20;;;0.20;;
14408;SDS011;7289;50.706;4.992;2023-03-12T08:45:56;0.10;;;0.10;;
14408;SDS011;7289;50.706;4.992;2023-03-12T08:48:26;0.20;;;0.20;;
14408;SDS011;7289;50.706;4.992;2023-03-12T08:50:55;0.20;;;0.20;;
14408;SDS011;7289;50.706;4.992;2023-03-12T08:53:24;0.20;;;0.20;;
14408;SDS011;7289;50.706;4.992;2023-03-12T08:55:53;0.13;;;0.13;;
14408;SDS011;7289;50.706;4.992;2023-03-12T08:58:23;0.20;;;0.20;;
14408;SDS011;7289;50.706;4.992;2023-03-12T09:00:52;0.10;;;0.10;;
14408;SDS011;7289;50.706;4.992;2023-03-12T09:03:22;0.10;;;0.10;;
14408;SDS011;7289;50.706;4.992;2023-03-12T09:06:00;0.20;;;0.20;;
14408;SDS011;7289;50.706;4.992;2023-03-12T09:08:30;0.10;;;0.10;;
14408;SDS011;7289;50.706;4.992;2023-03-12T09:10:59;0.20;;;0.20;;
14408;SDS011;7289;50.706;4.992;2023-03-12T09:13:28;0.10;;;0.10;;
14408;SDS011;7289;50.706;4.992;2023-03-12T09:16:16;0.10;;;0.10;;
14408;SDS011;7289;50.706;4.992;2023-03-12T09:18:46;0.10;;;0.10;;
14408;SDS011;7289;50.706;4.992;2023-03-12T09:21:15;0.10;;;0.10;;
14408;SDS011;7289;50.706;4.992;2023-03-12T09:23:43;0.10;;;0.10;;
14408;SDS011;7289;50.706;4.992;2023-03-12T09:26:11;0.10;;;0.10;;
14408;SDS011;7289;50.706;4.992;2023-03-12T09:28:40;0.17;;;0.17;;
14408;SDS011;7289;50.706;4.992;2023-03-12T09:31:10;0.10;;;0.10;;
14408;SDS011;7289;50.706;4.992;2023-03-12T09:33:39;0.10;;;0.10;;
14408;SDS011;7289;50.706;4.992;2023-03-12T09:36:09;0.10;;;0.10;;
14408;SDS011;7289;50.706;4.992;2023-03-12T09:38:37;0.10;;;0.10;;
14408;SDS011;7289;50.706;4.992;2023-03-12T09:41:10;0.10;;;0.10;;
14408;SDS011;7289;50.706;4.992;2023-03-12T09:43:44;0.10;;;0.10;;
14408;SDS011;7289;50.706;4.992;2023-03-12T09:46:18;0.10;;;0.10;;
14408;SDS011;7289;50.706;4.992;2023-03-12T09:48:51;0.10;;;0.10;;
14408;SDS011;7289;50.706;4.992;2023-03-12T09:51:25;0.10;;;0.10;;
14408;SDS011;7289;50.706;4.992;2023-03-12T09:53:58;0.20;;;0.20;;
14408;SDS011;7289;50.706;4.992;2023-03-12T09:56:28;0.10;;;0.10;;
14408;SDS011;7289;50.706;4.992;2023-03-12T09:58:57;0.10;;;0.10;;
14408;SDS011;7289;50.706;4.992;2023-03-12T10:01:34;0.10;;;0.10;;
14408;SDS011;7289;50.706;4.992;2023-03-12T10:04:11;0.20;;;0.20;;
14408;SDS011;7289;50.706;4.992;2023-03-12T10:07:10;0.10;;;0.10;;
14408;SDS011;7289;50.706;4.992;2023-03-12T10:09:54;0.10;;;0.10;;
14408;SDS011;7289;50.706;4.992;2023-03-12T10:12:41;0.10;;;0.10;;
14408;SDS011;7289;50.706;4.992;2023-03-12T10:15:23;0.10;;;0.10;;
14408;SDS011;7289;50.706;4.992;2023-03-12T10:18:01;0.10;;;0.10;;
14408;SDS011;7289;50.706;4.992;2023-03-12T10:20:50;0.10;;;0.10;;
14408;SDS011;7289;50.706;4.992;2023-03-12T10:23:27;0.10;;;0.10;;
14408;SDS011;7289;50.706;4.992;2023-03-12T10:26:06;0.10;;;0.10;;
14408;SDS011;7289;50.706;4.992;2023-03-12T10:28:41;0.10;;;0.10;;
14408;SDS011;7289;50.706;4.992;2023-03-12T10:31:13;0.10;;;0.10;;
14408;SDS011;7289;50.706;4.992;2023-03-12T10:33:46;0.10;;;0.10;;
14408;SDS011;7289;50.706;4.992;2023-03-12T10:36:20;0.10;;;0.10;;
14408;SDS011;7289;50.706;4.992;2023-03-12T10:38:53;0.10;;;0.10;;
14408;SDS011;7289;50.706;4.992;2023-03-12T10:41:22;0.10;;;0.10;;
14408;SDS011;7289;50.706;4.992;2023-03-12T10:43:51;0.10;;;0.10;;
14408;SDS011;7289;50.706;4.992;2023-03-12T10:46:29;0.10;;;0.10;;
14408;SDS011;7289;50.706;4.992;2023-03-12T10:49:21;0.10;;;0.10;;
14408;SDS011;7289;50.706;4.992;2023-03-12T10:51:55;0.10;;;0.10;;
14408;SDS011;7289;50.706;4.992;2023-03-12T10:54:36;0.10;;;0.10;;
14408;SDS011;7289;50.706;4.992;2023-03-12T10:57:06;0.10;;;0.10;;
14408;SDS011;7289;50.706;4.992;2023-03-12T10:59:35;0.10;;;0.10;;
14408;SDS011;7289;50.706;4.992;2023-03-12T11:05:17;0.17;;;0.17;;
14408;SDS011;7289;50.706;4.992;2023-03-12T11:07:48;0.10;;;0.10;;
14408;SDS011;7289;50.706;4.992;2023-03-12T11:10:23;0.10;;;0.10;;
14408;SDS011;7289;50.706;4.992;2023-03-12T11:13:01;0.10;;;0.10;;
14408;SDS011;7289;50.706;4.992;2023-03-12T11:15:38;0.10;;;0.10;;
14408;SDS011;7289;50.706;4.992;2023-03-12T11:18:24;0.10;;;0.10;;
14408;SDS011;7289;50.706;4.992;2023-03-12T11:20:55;0.10;;;0.10;;
14408;SDS011;7289;50.706;4.992;2023-03-12T11:23:38;0.10;;;0.10;;
14408;SDS011;7289;50.706;4.992;2023-03-12T11:26:13;0.10;;;0.10;;
14408;SDS011;7289;50.706;4.992;2023-03-12T11:28:45;0.10;;;0.10;;
14408;SDS011;7289;50.706;4.992;2023-03-12T11:31:18;0.10;;;0.10;;
14408;SDS011;7289;50.706;4.992;2023-03-12T11:33:50;0.10;;;0.10;;
14408;SDS011;7289;50.706;4.992;2023-03-12T11:36:27;0.10;;;0.10;;
14408;SDS011;7289;50.706;4.992;2023-03-12T11:39:05;0.10;;;0.10;;
14408;SDS011;7289;50.706;4.992;2023-03-12T11:41:44;0.10;;;0.10;;
14408;SDS011;7289;50.706;4.992;2023-03-12T11:44:26;0.10;;;0.10;;
14408;SDS011;7289;50.706;4.992;2023-03-12T11:47:04;0.10;;;0.10;;
14408;SDS011;7289;50.706;4.992;2023-03-12T11:49:52;0.10;;;0.10;;
14408;SDS011;7289;50.706;4.992;2023-03-12T11:52:31;0.10;;;0.10;;
14408;SDS011;7289;50.706;4.992;2023-03-12T11:55:14;0.10;;;0.10;;
14408;SDS011;7289;50.706;4.992;2023-03-12T11:57:50;0.10;;;0.10;;
14408;SDS011;7289;50.706;4.992;2023-03-12T12:00:27;0.10;;;0.10;;
14408;SDS011;7289;50.706;4.992;2023-03-12T12:05:57;0.10;;;0.10;;
14408;SDS011;7289;50.706;4.992;2023-03-12T12:08:34;0.10;;;0.10;;
14408;SDS011;7289;50.706;4.992;2023-03-12T12:11:21;0.10;;;0.10;;
14408;SDS011;7289;50.706;4.992;2023-03-12T12:13:58;0.13;;;0.13;;
14408;SDS011;7289;50.706;4.992;2023-03-12T12:16:41;0.10;;;0.10;;
14408;SDS011;7289;50.706;4.992;2023-03-12T12:19:20;0.10;;;0.10;;
14408;SDS011;7289;50.706;4.992;2023-03-12T12:22:00;0.10;;;0.10;;
14408;SDS011;7289;50.706;4.992;2023-03-12T12:24:42;0.10;;;0.10;;
14408;SDS011;7289;50.706;4.992;2023-03-12T12:27:21;0.10;;;0.10;;
14408;SDS011;7289;50.706;4.992;2023-03-12T12:29:59;0.10;;;0.10;;
14408;SDS011;7289;50.706;4.992;2023-03-12T12:32:51;0.10;;;0.10;;
14408;SDS011;7289;50.706;4.992;2023-03-12T12:35:28;0.10;;;0.10;;
14408;SDS011;7289;50.706;4.992;2023-03-12T12:38:02;0.10;;;0.10;;
14408;SDS011;7289;50.706;4.992;2023-03-12T12:40:35;0.10;;;0.10;;
14408;SDS011;7289;50.706;4.992;2023-03-12T12:43:15;0.10;;;0.10;;
14408;SDS011;7289;50.706;4.992;2023-03-12T12:45:56;0.10;;;0.10;;
14408;SDS011;7289;50.706;4.992;2023-03-12T12:48:28;0.10;;;0.10;;
14408;SDS011;7289;50.706;4.992;2023-03-12T12:51:00;0.10;;;0.10;;
14408;SDS011;7289;50.706;4.992;2023-03-12T12:53:35;0.10;;;0.10;;
14408;SDS011;7289;50.706;4.992;2023-03-12T12:56:12;0.20;;;0.20;;
14408;SDS011;7289;50.706;4.992;2023-03-12T12:58:56;0.10;;;0.10;;
14408;SDS011;7289;50.706;4.992;2023-03-12T13:01:36;0.10;;;0.10;;
14408;SDS011;7289;50.706;4.992;2023-03-12T13:04:08;0.10;;;0.10;;
14408;SDS011;7289;50.706;4.992;2023-03-12T13:06:52;0.10;;;0.10;;
14408;SDS011;7289;50.706;4.992;2023-03-12T13:09:22;0.10;;;0.10;;
14408;SDS011;7289;50.706;4.992;2023-03-12T13:12:07;0.10;;;0.10;;
14408;SDS011;7289;50.706;4.992;2023-03-12T13:14:45;0.10;;;0.10;;
14408;SDS011;7289;50.706;4.992;2023-03-12T13:17:20;0.13;;;0.13;;
14408;SDS011;7289;50.706;4.992;2023-03-12T13:19:52;0.20;;;0.20;;
14408;SDS011;7289;50.706;4.992;2023-03-12T13:22:38;0.10;;;0.10;;
14408;SDS011;7289;50.706;4.992;2023-03-12T13:25:28;0.10;;;0.10;;
14408;SDS011;7289;50.706;4.992;2023-03-12T13:36:59;0.10;;;0.10;;
14408;SDS011;7289;50.706;4.992;2023-03-12T13:39:29;0.10;;;0.10;;
14408;SDS011;7289;50.706;4.992;2023-03-12T13:41:59;0.10;;;0.10;;
14408;SDS011;7289;50.706;4.992;2023-03-12T13:44:30;0.10;;;0.10;;
14408;SDS011;7289;50.706;4.992;2023-03-12T13:47:05;0.13;;;0.13;;
14408;SDS011;7289;50.706;4.992;2023-03-12T13:49:52;0.10;;;0.10;;
14408;SDS011;7289;50.706;4.992;2023-03-12T13:52:24;0.10;;;0.10;;
14408;SDS011;7289;50.706;4.992;2023-03-12T13:54:58;0.10;;;0.10;;
14408;SDS011;7289;50.706;4.992;2023-03-12T13:57:30;0.10;;;0.10;;
14408;SDS011;7289;50.706;4.992;2023-03-12T14:00:09;0.10;;;0.10;;
14408;SDS011;7289;50.706;4.992;2023-03-12T14:02:44;0.10;;;0.10;;
14408;SDS011;7289;50.706;4.992;2023-03-12T14:05:17;0.10;;;0.10;;
14408;SDS011;7289;50.706;4.992;2023-03-12T14:11:02;0.10;;;0.10;;
14408;SDS011;7289;50.706;4.992;2023-03-12T14:13:48;0.10;;;0.10;;
14408;SDS011;7289;50.706;4.992;2023-03-12T14:16:36;0.10;;;0.10;;
14408;SDS011;7289;50.706;4.992;2023-03-12T14:19:08;0.10;;;0.10;;
14408;SDS011;7289;50.706;4.992;2023-03-12T14:21:40;0.10;;;0.10;;
14408;SDS011;7289;50.706;4.992;2023-03-12T14:24:15;0.10;;;0.10;;
14408;SDS011;7289;50.706;4.992;2023-03-12T14:26:49;0.10;;;0.10;;
14408;SDS011;7289;50.706;4.992;2023-03-12T14:29:19;0.10;;;0.10;;
14408;SDS011;7289;50.706;4.992;2023-03-12T14:31:53;0.10;;;0.10;;
14408;SDS011;7289;50.706;4.992;2023-03-12T14:34:24;0.10;;;0.10;;
14408;SDS011;7289;50.706;4.992;2023-03-12T14:36:57;0.10;;;0.10;;
14408;SDS011;7289;50.706;4.992;2023-03-12T14:39:31;0.10;;;0.10;;
14408;SDS011;7289;50.706;4.992;2023-03-12T14:42:03;0.10;;;0.10;;
14408;SDS011;7289;50.706;4.992;2023-03-12T14:44:33;0.10;;;0.10;;
14408;SDS011;7289;50.706;4.992;2023-03-12T14:47:04;0.00;;;0.00;;
14408;SDS011;7289;50.706;4.992;2023-03-12T14:49:38;0.10;;;0.10;;
14408;SDS011;7289;50.706;4.992;2023-03-12T14:52:11;0.10;;;0.10;;
14408;SDS011;7289;50.706;4.992;2023-03-12T14:54:51;0.10;;;0.10;;
14408;SDS011;7289;50.706;4.992;2023-03-12T14:57:20;0.10;;;0.10;;
14408;SDS011;7289;50.706;4.992;2023-03-12T14:59:53;0.10;;;0.10;;
14408;SDS011;7289;50.706;4.992;2023-03-12T15:02:23;0.10;;;0.10;;
14408;SDS011;7289;50.706;4.992;2023-03-12T15:04:54;0.00;;;0.00;;
14408;SDS011;7289;50.706;4.992;2023-03-12T15:07:26;0.10;;;0.10;;
14408;SDS011;7289;50.706;4.992;2023-03-12T15:09:57;0.10;;;0.10;;
14408;SDS011;7289;50.706;4.992;2023-03-12T15:12:27;0.10;;;0.10;;
14408;SDS011;7289;50.706;4.992;2023-03-12T15:15:00;0.10;;;0.10;;
14408;SDS011;7289;50.706;4.992;2023-03-12T15:17:32;0.10;;;0.10;;
14408;SDS011;7289;50.706;4.992;2023-03-12T15:20:02;0.20;;;0.20;;
14408;SDS011;7289;50.706;4.992;2023-03-12T15:22:36;0.10;;;0.10;;
14408;SDS011;7289;50.706;4.992;2023-03-12T15:25:13;0.10;;;0.10;;
14408;SDS011;7289;50.706;4.992;2023-03-12T15:27:58;0.10;;;0.10;;
14408;SDS011;7289;50.706;4.992;2023-03-12T15:30:28;0.10;;;0.10;;
14408;SDS011;7289;50.706;4.992;2023-03-12T15:33:08;0.10;;;0.10;;
14408;SDS011;7289;50.706;4.992;2023-03-12T15:35:39;0.10;;;0.10;;
14408;SDS011;7289;50.706;4.992;2023-03-12T15:38:14;0.10;;;0.10;;
14408;SDS011;7289;50.706;4.992;2023-03-12T15:40:47;0.10;;;0.10;;
14408;SDS011;7289;50.706;4.992;2023-03-12T15:43:16;0.10;;;0.10;;
14408;SDS011;7289;50.706;4.992;2023-03-12T15:45:47;0.10;;;0.10;;
14408;SDS011;7289;50.706;4.992;2023-03-12T15:48:26;0.10;;;0.10;;
14408;SDS011;7289;50.706;4.992;2023-03-12T15:50:57;0.10;;;0.10;;